sensor_id;sensor_type;location;lat;lon;timestamp;temperature;humidity
1830;DHT22;914;48.118;11.600;2022-10-17T00:01:06;17.60;99.90
1830;DHT22;914;48.118;11.600;2022-10-17T00:03:32;17.60;99.90
1830;DHT22;914;48.118;11.600;2022-10-17T00:06:03;17.50;99.90
1830;DHT22;914;48.118;11.600;2022-10-17T00:08:28;17.50;99.90
1830;DHT22;914;48.118;11.600;2022-10-17T00:10:57;17.40;99.90
1830;DHT22;914;48.118;11.600;2022-10-17T00:13:23;17.40;99.90
1830;DHT22;914;48.118;11.600;2022-10-17T00:15:48;17.40;99.90
1830;DHT22;914;48.118;11.600;2022-10-17T00:18:14;17.30;99.90
1830;DHT22;914;48.118;11.600;2022-10-17T00:20:40;17.20;99.90
1830;DHT22;914;48.118;11.600;2022-10-17T00:23:05;17.10;99.90
1830;DHT22;914;48.118;11.600;2022-10-17T00:25:31;17.20;99.90
1830;DHT22;914;48.118;11.600;2022-10-17T00:27:56;17.10;99.90
1830;DHT22;914;48.118;11.600;2022-10-17T00:30:22;17.10;99.90
1830;DHT22;914;48.118;11.600;2022-10-17T00:32:48;17.20;99.90
1830;DHT22;914;48.118;11.600;2022-10-17T00:35:13;17.20;99.90
1830;DHT22;914;48.118;11.600;2022-10-17T00:37:39;17.10;99.90
1830;DHT22;914;48.118;11.600;2022-10-17T00:40:06;16.90;99.90
1830;DHT22;914;48.118;11.600;2022-10-17T00:42:32;16.80;99.90
1830;DHT22;914;48.118;11.600;2022-10-17T00:47:33;16.90;99.90
1830;DHT22;914;48.118;11.600;2022-10-17T00:50:00;17.00;99.90
1830;DHT22;914;48.118;11.600;2022-10-17T00:52:27;17.00;99.90
1830;DHT22;914;48.118;11.600;2022-10-17T00:54:58;17.00;99.90
1830;DHT22;914;48.118;11.600;2022-10-17T00:57:27;16.90;99.90
1830;DHT22;914;48.118;11.600;2022-10-17T00:59:55;17.00;99.90
1830;DHT22;914;48.118;11.600;2022-10-17T01:02:22;16.80;99.90
1830;DHT22;914;48.118;11.600;2022-10-17T01:04:50;16.80;99.90
1830;DHT22;914;48.118;11.600;2022-10-17T01:07:17;16.80;99.90
1830;DHT22;914;48.118;11.600;2022-10-17T01:09:44;16.70;99.90
1830;DHT22;914;48.118;11.600;2022-10-17T01:20:22;16.60;99.90
1830;DHT22;914;48.118;11.600;2022-10-17T01:31:21;16.50;99.90
1830;DHT22;914;48.118;11.600;2022-10-17T01:36:50;16.40;99.90
1830;DHT22;914;48.118;11.600;2022-10-17T01:42:13;16.30;99.90
1830;DHT22;914;48.118;11.600;2022-10-17T01:44:54;16.20;99.90
1830;DHT22;914;48.118;11.600;2022-10-17T01:47:25;16.20;99.90
1830;DHT22;914;48.118;11.600;2022-10-17T01:49:54;16.10;99.90
1830;DHT22;914;48.118;11.600;2022-10-17T01:52:27;16.10;99.90
1830;DHT22;914;48.118;11.600;2022-10-17T01:55:03;16.10;99.90
1830;DHT22;914;48.118;11.600;2022-10-17T01:57:52;16.00;99.90
1830;DHT22;914;48.118;11.600;2022-10-17T02:00:22;16.10;99.90
1830;DHT22;914;48.118;11.600;2022-10-17T02:02:52;16.00;99.90
1830;DHT22;914;48.118;11.600;2022-10-17T02:05:21;15.90;99.90
1830;DHT22;914;48.118;11.600;2022-10-17T02:07:48;16.00;99.90
1830;DHT22;914;48.118;11.600;2022-10-17T02:10:24;16.10;99.90
1830;DHT22;914;48.118;11.600;2022-10-17T02:15:58;16.20;99.90
1830;DHT22;914;48.118;11.600;2022-10-17T02:18:46;16.20;99.90
1830;DHT22;914;48.118;11.600;2022-10-17T02:21:30;16.00;99.90
1830;DHT22;914;48.118;11.600;2022-10-17T02:24:08;15.90;99.90
1830;DHT22;914;48.118;11.600;2022-10-17T02:26:45;15.90;99.90
1830;DHT22;914;48.118;11.600;2022-10-17T02:29:18;15.80;99.90
1830;DHT22;914;48.118;11.600;2022-10-17T02:31:55;15.80;99.90
1830;DHT22;914;48.118;11.600;2022-10-17T02:34:32;15.70;99.90
1830;DHT22;914;48.118;11.600;2022-10-17T02:37:02;15.80;99.90
1830;DHT22;914;48.118;11.600;2022-10-17T02:39:30;15.80;99.90
1830;DHT22;914;48.118;11.600;2022-10-17T02:41:59;15.90;99.90
1830;DHT22;914;48.118;11.600;2022-10-17T02:44:27;15.90;99.90
1830;DHT22;914;48.118;11.600;2022-10-17T02:47:00;15.70;99.90
1830;DHT22;914;48.118;11.600;2022-10-17T02:49:31;15.50;99.90
1830;DHT22;914;48.118;11.600;2022-10-17T02:52:19;15.50;99.90
1830;DHT22;914;48.118;11.600;2022-10-17T02:55:13;15.50;99.90
1830;DHT22;914;48.118;11.600;2022-10-17T02:57:42;15.40;99.90
1830;DHT22;914;48.118;11.600;2022-10-17T03:00:11;15.40;99.90
1830;DHT22;914;48.118;11.600;2022-10-17T03:02:49;15.30;99.90
1830;DHT22;914;48.118;11.600;2022-10-17T03:05:18;15.40;99.90
1830;DHT22;914;48.118;11.600;2022-10-17T03:07:45;15.50;99.90
1830;DHT22;914;48.118;11.600;2022-10-17T03:10:10;15.60;99.90
1830;DHT22;914;48.118;11.600;2022-10-17T03:12:36;15.60;99.90
1830;DHT22;914;48.118;11.600;2022-10-17T03:15:02;15.50;99.90
1830;DHT22;914;48.118;11.600;2022-10-17T03:17:28;15.40;99.90
1830;DHT22;914;48.118;11.600;2022-10-17T03:19:54;15.30;99.90
1830;DHT22;914;48.118;11.600;2022-10-17T03:22:20;15.20;99.90
1830;DHT22;914;48.118;11.600;2022-10-17T03:24:45;15.10;99.90
1830;DHT22;914;48.118;11.600;2022-10-17T03:27:11;15.00;99.90
1830;DHT22;914;48.118;11.600;2022-10-17T03:29:36;15.10;99.90
1830;DHT22;914;48.118;11.600;2022-10-17T03:32:02;15.10;99.90
1830;DHT22;914;48.118;11.600;2022-10-17T03:34:28;15.20;99.90
1830;DHT22;914;48.118;11.600;2022-10-17T03:36:53;15.20;99.90
1830;DHT22;914;48.118;11.600;2022-10-17T03:39:19;15.20;99.90
1830;DHT22;914;48.118;11.600;2022-10-17T03:41:45;15.30;99.90
1830;DHT22;914;48.118;11.600;2022-10-17T03:44:11;15.30;99.90
1830;DHT22;914;48.118;11.600;2022-10-17T03:46:36;15.40;99.90
1830;DHT22;914;48.118;11.600;2022-10-17T03:49:02;15.40;99.90
1830;DHT22;914;48.118;11.600;2022-10-17T03:51:28;15.30;99.90
1830;DHT22;914;48.118;11.600;2022-10-17T03:53:53;15.20;99.90
1830;DHT22;914;48.118;11.600;2022-10-17T03:56:21;15.00;99.90
1830;DHT22;914;48.118;11.600;2022-10-17T03:58:47;15.00;99.90
1830;DHT22;914;48.118;11.600;2022-10-17T04:01:14;15.00;99.90
1830;DHT22;914;48.118;11.600;2022-10-17T04:03:41;15.00;99.90
1830;DHT22;914;48.118;11.600;2022-10-17T04:06:08;15.00;99.90
1830;DHT22;914;48.118;11.600;2022-10-17T04:08:35;15.10;99.90
1830;DHT22;914;48.118;11.600;2022-10-17T04:11:05;15.00;99.90
1830;DHT22;914;48.118;11.600;2022-10-17T04:13:32;15.10;99.90
1830;DHT22;914;48.118;11.600;2022-10-17T04:16:00;14.90;99.90
1830;DHT22;914;48.118;11.600;2022-10-17T04:18:26;14.50;99.90
1830;DHT22;914;48.118;11.600;2022-10-17T04:20:52;14.50;99.90
1830;DHT22;914;48.118;11.600;2022-10-17T04:23:18;14.60;99.90
1830;DHT22;914;48.118;11.600;2022-10-17T04:25:44;14.70;99.90
1830;DHT22;914;48.118;11.600;2022-10-17T04:28:10;14.80;99.90
1830;DHT22;914;48.118;11.600;2022-10-17T04:30:36;14.90;99.90
1830;DHT22;914;48.118;11.600;2022-10-17T04:33:02;14.90;99.90
1830;DHT22;914;48.118;11.600;2022-10-17T04:35:28;14.90;99.90
1830;DHT22;914;48.118;11.600;2022-10-17T04:37:53;14.90;99.90
1830;DHT22;914;48.118;11.600;2022-10-17T04:40:19;14.90;99.90
1830;DHT22;914;48.118;11.600;2022-10-17T04:42:45;14.80;99.90
1830;DHT22;914;48.118;11.600;2022-10-17T04:45:11;14.80;99.90
1830;DHT22;914;48.118;11.600;2022-10-17T04:47:37;14.80;99.90
1830;DHT22;914;48.118;11.600;2022-10-17T04:50:03;14.90;99.90
1830;DHT22;914;48.118;11.600;2022-10-17T04:52:30;14.90;99.90
1830;DHT22;914;48.118;11.600;2022-10-17T04:54:56;14.90;99.90
1830;DHT22;914;48.118;11.600;2022-10-17T04:57:22;14.80;99.90
1830;DHT22;914;48.118;11.600;2022-10-17T04:59:49;14.80;99.90
1830;DHT22;914;48.118;11.600;2022-10-17T05:02:15;14.50;99.90
1830;DHT22;914;48.118;11.600;2022-10-17T05:04:41;14.30;99.90
1830;DHT22;914;48.118;11.600;2022-10-17T05:07:07;14.50;99.90
1830;DHT22;914;48.118;11.600;2022-10-17T05:09:32;14.60;99.90
1830;DHT22;914;48.118;11.600;2022-10-17T05:11:58;14.70;99.90
1830;DHT22;914;48.118;11.600;2022-10-17T05:14:24;14.60;99.90
1830;DHT22;914;48.118;11.600;2022-10-17T05:16:50;14.70;99.90
1830;DHT22;914;48.118;11.600;2022-10-17T05:19:15;14.80;99.90
1830;DHT22;914;48.118;11.600;2022-10-17T05:21:42;14.70;99.90
1830;DHT22;914;48.118;11.600;2022-10-17T05:24:10;14.70;99.90
1830;DHT22;914;48.118;11.600;2022-10-17T05:26:35;14.70;99.90
1830;DHT22;914;48.118;11.600;2022-10-17T05:29:01;14.70;99.90
1830;DHT22;914;48.118;11.600;2022-10-17T05:31:29;14.70;99.90
1830;DHT22;914;48.118;11.600;2022-10-17T05:33:55;14.70;99.90
1830;DHT22;914;48.118;11.600;2022-10-17T05:36:20;14.70;99.90
1830;DHT22;914;48.118;11.600;2022-10-17T05:38:50;14.70;99.90
1830;DHT22;914;48.118;11.600;2022-10-17T05:41:17;14.70;99.90
1830;DHT22;914;48.118;11.600;2022-10-17T05:43:42;14.80;99.90
1830;DHT22;914;48.118;11.600;2022-10-17T05:46:08;14.80;99.90
1830;DHT22;914;48.118;11.600;2022-10-17T05:48:34;14.70;99.90
1830;DHT22;914;48.118;11.600;2022-10-17T05:51:02;14.70;99.90
1830;DHT22;914;48.118;11.600;2022-10-17T05:53:32;14.70;99.90
1830;DHT22;914;48.118;11.600;2022-10-17T05:56:00;14.70;99.90
1830;DHT22;914;48.118;11.600;2022-10-17T05:58:26;14.70;99.90
1830;DHT22;914;48.118;11.600;2022-10-17T06:01:00;14.70;99.90
1830;DHT22;914;48.118;11.600;2022-10-17T06:03:26;14.70;99.90
1830;DHT22;914;48.118;11.600;2022-10-17T06:05:53;14.70;99.90
1830;DHT22;914;48.118;11.600;2022-10-17T06:08:19;14.70;99.90
1830;DHT22;914;48.118;11.600;2022-10-17T06:10:49;14.70;99.90
1830;DHT22;914;48.118;11.600;2022-10-17T06:13:16;14.70;99.90
1830;DHT22;914;48.118;11.600;2022-10-17T06:15:42;14.70;99.90
1830;DHT22;914;48.118;11.600;2022-10-17T06:18:09;14.70;99.90
1830;DHT22;914;48.118;11.600;2022-10-17T06:20:35;14.70;99.90
1830;DHT22;914;48.118;11.600;2022-10-17T06:23:03;14.80;99.90
1830;DHT22;914;48.118;11.600;2022-10-17T06:25:30;14.80;99.90
1830;DHT22;914;48.118;11.600;2022-10-17T06:27:56;14.80;99.90
1830;DHT22;914;48.118;11.600;2022-10-17T06:30:21;14.80;99.90
1830;DHT22;914;48.118;11.600;2022-10-17T06:32:51;14.90;99.90
1830;DHT22;914;48.118;11.600;2022-10-17T06:35:18;15.00;99.90
1830;DHT22;914;48.118;11.600;2022-10-17T06:37:44;15.10;99.90
1830;DHT22;914;48.118;11.600;2022-10-17T06:40:10;15.10;99.90
1830;DHT22;914;48.118;11.600;2022-10-17T06:42:37;15.10;99.90
1830;DHT22;914;48.118;11.600;2022-10-17T06:45:04;15.20;99.90
1830;DHT22;914;48.118;11.600;2022-10-17T06:47:30;15.30;99.90
1830;DHT22;914;48.118;11.600;2022-10-17T06:49:55;15.30;99.90
1830;DHT22;914;48.118;11.600;2022-10-17T06:52:21;15.40;99.90
1830;DHT22;914;48.118;11.600;2022-10-17T06:54:47;15.50;99.90
1830;DHT22;914;48.118;11.600;2022-10-17T06:57:12;15.70;99.90
1830;DHT22;914;48.118;11.600;2022-10-17T06:59:38;15.70;99.90
1830;DHT22;914;48.118;11.600;2022-10-17T07:02:04;15.80;99.90
1830;DHT22;914;48.118;11.600;2022-10-17T07:04:30;16.00;99.90
1830;DHT22;914;48.118;11.600;2022-10-17T07:06:56;16.10;99.90
1830;DHT22;914;48.118;11.600;2022-10-17T07:09:22;16.20;99.90
1830;DHT22;914;48.118;11.600;2022-10-17T07:11:48;16.30;99.90
1830;DHT22;914;48.118;11.600;2022-10-17T07:14:14;16.40;99.90
1830;DHT22;914;48.118;11.600;2022-10-17T07:16:40;16.50;99.90
1830;DHT22;914;48.118;11.600;2022-10-17T07:19:05;16.60;99.90
1830;DHT22;914;48.118;11.600;2022-10-17T07:21:31;16.70;99.90
1830;DHT22;914;48.118;11.600;2022-10-17T07:23:57;16.80;99.90
1830;DHT22;914;48.118;11.600;2022-10-17T07:26:23;16.80;99.90
1830;DHT22;914;48.118;11.600;2022-10-17T07:28:51;16.80;99.90
1830;DHT22;914;48.118;11.600;2022-10-17T07:31:18;16.80;99.90
1830;DHT22;914;48.118;11.600;2022-10-17T07:33:45;16.90;99.90
1830;DHT22;914;48.118;11.600;2022-10-17T07:36:11;17.10;99.90
1830;DHT22;914;48.118;11.600;2022-10-17T07:38:37;17.40;99.90
1830;DHT22;914;48.118;11.600;2022-10-17T07:41:05;17.60;99.90
1830;DHT22;914;48.118;11.600;2022-10-17T07:43:31;17.80;99.50
1830;DHT22;914;48.118;11.600;2022-10-17T07:45:57;18.00;99.20
1830;DHT22;914;48.118;11.600;2022-10-17T07:48:23;18.10;99.50
1830;DHT22;914;48.118;11.600;2022-10-17T07:50:49;18.30;98.70
1830;DHT22;914;48.118;11.600;2022-10-17T07:53:16;18.40;98.70
1830;DHT22;914;48.118;11.600;2022-10-17T07:55:42;18.60;98.60
1830;DHT22;914;48.118;11.600;2022-10-17T07:58:11;18.70;98.20
1830;DHT22;914;48.118;11.600;2022-10-17T08:00:37;18.80;97.90
1830;DHT22;914;48.118;11.600;2022-10-17T08:03:04;18.80;97.50
1830;DHT22;914;48.118;11.600;2022-10-17T08:05:30;18.90;97.40
1830;DHT22;914;48.118;11.600;2022-10-17T08:07:56;18.90;97.20
1830;DHT22;914;48.118;11.600;2022-10-17T08:10:23;19.20;97.50
1830;DHT22;914;48.118;11.600;2022-10-17T08:12:57;19.40;96.80
1830;DHT22;914;48.118;11.600;2022-10-17T08:15:26;19.50;96.50
1830;DHT22;914;48.118;11.600;2022-10-17T08:17:52;19.50;96.70
1830;DHT22;914;48.118;11.600;2022-10-17T08:20:20;19.60;96.40
1830;DHT22;914;48.118;11.600;2022-10-17T08:22:53;19.70;96.50
1830;DHT22;914;48.118;11.600;2022-10-17T08:25:20;19.70;96.30
1830;DHT22;914;48.118;11.600;2022-10-17T08:27:45;20.00;95.60
1830;DHT22;914;48.118;11.600;2022-10-17T08:30:11;19.90;95.80
1830;DHT22;914;48.118;11.600;2022-10-17T08:32:37;19.90;95.80
1830;DHT22;914;48.118;11.600;2022-10-17T08:35:03;19.90;95.80
1830;DHT22;914;48.118;11.600;2022-10-17T08:37:29;19.90;95.80
1830;DHT22;914;48.118;11.600;2022-10-17T08:39:55;20.00;96.10
1830;DHT22;914;48.118;11.600;2022-10-17T08:42:43;20.10;96.00
1830;DHT22;914;48.118;11.600;2022-10-17T08:47:58;20.30;95.60
1830;DHT22;914;48.118;11.600;2022-10-17T08:50:58;20.50;95.80
1830;DHT22;914;48.118;11.600;2022-10-17T08:53:38;20.60;96.10
1830;DHT22;914;48.118;11.600;2022-10-17T08:56:17;20.60;95.40
1830;DHT22;914;48.118;11.600;2022-10-17T08:58:43;21.00;94.90
1830;DHT22;914;48.118;11.600;2022-10-17T09:07:45;21.50;94.30
1830;DHT22;914;48.118;11.600;2022-10-17T09:13:21;21.30;94.50
1830;DHT22;914;48.118;11.600;2022-10-17T09:15:59;21.40;94.80
1830;DHT22;914;48.118;11.600;2022-10-17T09:18:40;21.60;94.80
1830;DHT22;914;48.118;11.600;2022-10-17T09:21:41;21.70;94.40
1830;DHT22;914;48.118;11.600;2022-10-17T09:24:15;21.60;94.20
1830;DHT22;914;48.118;11.600;2022-10-17T09:26:44;21.70;94.50
1830;DHT22;914;48.118;11.600;2022-10-17T09:29:21;22.00;94.20
1830;DHT22;914;48.118;11.600;2022-10-17T09:32:10;22.10;93.40
1830;DHT22;914;48.118;11.600;2022-10-17T09:34:38;22.20;93.10
1830;DHT22;914;48.118;11.600;2022-10-17T09:37:11;22.00;92.40
1830;DHT22;914;48.118;11.600;2022-10-17T09:39:37;22.10;92.60
1830;DHT22;914;48.118;11.600;2022-10-17T09:42:03;22.60;92.70
1830;DHT22;914;48.118;11.600;2022-10-17T09:44:33;22.60;92.50
1830;DHT22;914;48.118;11.600;2022-10-17T09:49:41;22.80;93.00
1830;DHT22;914;48.118;11.600;2022-10-17T09:52:15;22.70;92.90
1830;DHT22;914;48.118;11.600;2022-10-17T09:54:51;22.70;92.80
1830;DHT22;914;48.118;11.600;2022-10-17T09:57:19;22.80;93.00
1830;DHT22;914;48.118;11.600;2022-10-17T10:00:05;22.70;91.80
1830;DHT22;914;48.118;11.600;2022-10-17T10:02:31;22.70;93.00
1830;DHT22;914;48.118;11.600;2022-10-17T10:05:03;23.20;93.10
1830;DHT22;914;48.118;11.600;2022-10-17T10:07:36;23.00;92.00
1830;DHT22;914;48.118;11.600;2022-10-17T10:10:07;23.20;91.40
1830;DHT22;914;48.118;11.600;2022-10-17T10:13:04;23.10;91.10
1830;DHT22;914;48.118;11.600;2022-10-17T10:15:34;23.50;92.20
1830;DHT22;914;48.118;11.600;2022-10-17T10:18:00;23.70;91.90
1830;DHT22;914;48.118;11.600;2022-10-17T10:20:36;24.00;91.10
1830;DHT22;914;48.118;11.600;2022-10-17T10:23:14;23.80;89.60
1830;DHT22;914;48.118;11.600;2022-10-17T10:25:54;23.80;90.00
1830;DHT22;914;48.118;11.600;2022-10-17T10:28:23;23.60;91.20
1830;DHT22;914;48.118;11.600;2022-10-17T10:30:51;23.40;90.80
1830;DHT22;914;48.118;11.600;2022-10-17T10:33:20;23.60;91.50
1830;DHT22;914;48.118;11.600;2022-10-17T10:35:56;23.60;90.70
1830;DHT22;914;48.118;11.600;2022-10-17T10:38:23;23.70;91.80
1830;DHT22;914;48.118;11.600;2022-10-17T10:40:51;23.60;89.50
1830;DHT22;914;48.118;11.600;2022-10-17T10:43:37;23.90;90.00
1830;DHT22;914;48.118;11.600;2022-10-17T10:46:15;24.00;87.60
1830;DHT22;914;48.118;11.600;2022-10-17T10:48:50;24.00;89.10
1830;DHT22;914;48.118;11.600;2022-10-17T10:51:31;24.00;89.70
1830;DHT22;914;48.118;11.600;2022-10-17T10:54:07;24.20;89.90
1830;DHT22;914;48.118;11.600;2022-10-17T10:56:41;24.40;88.30
1830;DHT22;914;48.118;11.600;2022-10-17T10:59:28;24.50;88.60
1830;DHT22;914;48.118;11.600;2022-10-17T11:01:55;24.50;87.60
1830;DHT22;914;48.118;11.600;2022-10-17T11:04:38;25.60;88.50
1830;DHT22;914;48.118;11.600;2022-10-17T11:12:37;25.30;82.80
1830;DHT22;914;48.118;11.600;2022-10-17T11:15:17;25.50;87.50
1830;DHT22;914;48.118;11.600;2022-10-17T11:17:56;26.10;83.00
1830;DHT22;914;48.118;11.600;2022-10-17T11:23:01;26.00;83.10
1830;DHT22;914;48.118;11.600;2022-10-17T11:25:36;26.00;79.70
1830;DHT22;914;48.118;11.600;2022-10-17T11:28:22;25.90;80.00
1830;DHT22;914;48.118;11.600;2022-10-17T11:30:56;26.50;80.00
1830;DHT22;914;48.118;11.600;2022-10-17T11:33:34;26.80;78.20
1830;DHT22;914;48.118;11.600;2022-10-17T11:36:07;27.00;77.30
1830;DHT22;914;48.118;11.600;2022-10-17T11:38:54;27.50;76.90
1830;DHT22;914;48.118;11.600;2022-10-17T11:43:59;26.60;73.70
1830;DHT22;914;48.118;11.600;2022-10-17T11:46:27;27.00;78.20
1830;DHT22;914;48.118;11.600;2022-10-17T11:49:10;27.00;81.70
1830;DHT22;914;48.118;11.600;2022-10-17T11:51:45;28.20;80.80
1830;DHT22;914;48.118;11.600;2022-10-17T11:54:22;28.90;77.10
1830;DHT22;914;48.118;11.600;2022-10-17T12:05:36;28.30;75.70
1830;DHT22;914;48.118;11.600;2022-10-17T12:15:54;27.00;73.90
1830;DHT22;914;48.118;11.600;2022-10-17T12:18:23;27.00;77.70
1830;DHT22;914;48.118;11.600;2022-10-17T12:20:57;28.00;77.50
1830;DHT22;914;48.118;11.600;2022-10-17T12:23:30;29.10;74.50
1830;DHT22;914;48.118;11.600;2022-10-17T12:26:02;28.60;70.40
1830;DHT22;914;48.118;11.600;2022-10-17T12:31:02;27.30;74.00
1830;DHT22;914;48.118;11.600;2022-10-17T12:33:36;27.90;81.00
1830;DHT22;914;48.118;11.600;2022-10-17T12:49:41;29.50;70.80
1830;DHT22;914;48.118;11.600;2022-10-17T12:57:36;30.00;73.60
1830;DHT22;914;48.118;11.600;2022-10-17T13:02:47;28.00;68.10
1830;DHT22;914;48.118;11.600;2022-10-17T13:05:25;28.20;75.90
1830;DHT22;914;48.118;11.600;2022-10-17T13:07:52;28.50;72.30
1830;DHT22;914;48.118;11.600;2022-10-17T13:10:23;29.00;72.40
1830;DHT22;914;48.118;11.600;2022-10-17T13:12:50;29.50;66.30
1830;DHT22;914;48.118;11.600;2022-10-17T13:15:19;29.10;69.80
1830;DHT22;914;48.118;11.600;2022-10-17T13:17:54;29.10;74.60
1830;DHT22;914;48.118;11.600;2022-10-17T13:20:22;28.70;68.10
1830;DHT22;914;48.118;11.600;2022-10-17T13:22:50;28.30;67.30
1830;DHT22;914;48.118;11.600;2022-10-17T13:25:18;28.60;72.60
1830;DHT22;914;48.118;11.600;2022-10-17T13:27:44;29.00;66.60
1830;DHT22;914;48.118;11.600;2022-10-17T13:30:31;28.40;61.30
1830;DHT22;914;48.118;11.600;2022-10-17T13:32:58;28.20;69.00
1830;DHT22;914;48.118;11.600;2022-10-17T13:35:33;28.30;72.90
1830;DHT22;914;48.118;11.600;2022-10-17T13:38:01;28.60;70.00
1830;DHT22;914;48.118;11.600;2022-10-17T13:40:29;28.80;72.30
1830;DHT22;914;48.118;11.600;2022-10-17T13:42:57;28.80;70.60
1830;DHT22;914;48.118;11.600;2022-10-17T13:45:36;28.60;69.10
1830;DHT22;914;48.118;11.600;2022-10-17T13:48:05;28.60;67.70
1830;DHT22;914;48.118;11.600;2022-10-17T13:50:35;28.30;74.10
1830;DHT22;914;48.118;11.600;2022-10-17T13:53:28;28.40;73.50
1830;DHT22;914;48.118;11.600;2022-10-17T13:56:00;28.20;74.40
1830;DHT22;914;48.118;11.600;2022-10-17T13:58:40;28.60;69.00
1830;DHT22;914;48.118;11.600;2022-10-17T14:01:07;28.60;67.10
1830;DHT22;914;48.118;11.600;2022-10-17T14:03:33;28.60;68.80
1830;DHT22;914;48.118;11.600;2022-10-17T14:06:11;28.60;72.40
1830;DHT22;914;48.118;11.600;2022-10-17T14:08:38;28.50;71.50
1830;DHT22;914;48.118;11.600;2022-10-17T14:11:21;28.40;69.00
1830;DHT22;914;48.118;11.600;2022-10-17T14:13:48;28.40;70.60
1830;DHT22;914;48.118;11.600;2022-10-17T14:16:15;27.90;66.50
1830;DHT22;914;48.118;11.600;2022-10-17T14:18:40;27.60;69.70
1830;DHT22;914;48.118;11.600;2022-10-17T14:21:09;27.50;68.40
1830;DHT22;914;48.118;11.600;2022-10-17T14:23:42;27.30;73.20
1830;DHT22;914;48.118;11.600;2022-10-17T14:26:14;27.90;72.00
1830;DHT22;914;48.118;11.600;2022-10-17T14:28:43;28.00;72.10
1830;DHT22;914;48.118;11.600;2022-10-17T14:31:28;27.80;72.30
1830;DHT22;914;48.118;11.600;2022-10-17T14:33:54;27.70;70.70
1830;DHT22;914;48.118;11.600;2022-10-17T14:36:39;27.60;71.00
1830;DHT22;914;48.118;11.600;2022-10-17T14:39:15;27.60;69.40
1830;DHT22;914;48.118;11.600;2022-10-17T14:41:44;27.60;75.00
1830;DHT22;914;48.118;11.600;2022-10-17T14:44:31;27.30;70.60
1830;DHT22;914;48.118;11.600;2022-10-17T14:47:05;27.20;72.10
1830;DHT22;914;48.118;11.600;2022-10-17T14:49:37;26.90;70.40
1830;DHT22;914;48.118;11.600;2022-10-17T14:54:43;27.00;71.00
1830;DHT22;914;48.118;11.600;2022-10-17T14:57:22;26.70;71.40
1830;DHT22;914;48.118;11.600;2022-10-17T14:59:48;26.60;71.40
1830;DHT22;914;48.118;11.600;2022-10-17T15:02:14;26.50;71.50
1830;DHT22;914;48.118;11.600;2022-10-17T15:04:40;26.60;72.60
1830;DHT22;914;48.118;11.600;2022-10-17T15:07:16;26.60;77.00
1830;DHT22;914;48.118;11.600;2022-10-17T15:09:42;26.80;77.30
1830;DHT22;914;48.118;11.600;2022-10-17T15:12:18;26.80;73.60
1830;DHT22;914;48.118;11.600;2022-10-17T15:14:44;26.60;73.30
1830;DHT22;914;48.118;11.600;2022-10-17T15:17:17;26.50;72.80
1830;DHT22;914;48.118;11.600;2022-10-17T15:19:45;26.40;75.40
1830;DHT22;914;48.118;11.600;2022-10-17T15:22:11;26.30;72.70
1830;DHT22;914;48.118;11.600;2022-10-17T15:24:37;26.30;72.10
1830;DHT22;914;48.118;11.600;2022-10-17T15:27:08;26.20;72.80
1830;DHT22;914;48.118;11.600;2022-10-17T15:29:37;26.20;72.20
1830;DHT22;914;48.118;11.600;2022-10-17T15:32:03;26.00;73.10
1830;DHT22;914;48.118;11.600;2022-10-17T15:34:28;26.00;74.00
1830;DHT22;914;48.118;11.600;2022-10-17T15:36:54;26.00;73.50
1830;DHT22;914;48.118;11.600;2022-10-17T15:39:20;26.10;73.80
1830;DHT22;914;48.118;11.600;2022-10-17T15:41:45;26.10;77.30
1830;DHT22;914;48.118;11.600;2022-10-17T15:44:12;26.00;73.90
1830;DHT22;914;48.118;11.600;2022-10-17T15:46:39;25.90;75.20
1830;DHT22;914;48.118;11.600;2022-10-17T15:49:08;25.90;74.10
1830;DHT22;914;48.118;11.600;2022-10-17T15:51:34;25.80;74.10
1830;DHT22;914;48.118;11.600;2022-10-17T15:54:00;25.50;74.90
1830;DHT22;914;48.118;11.600;2022-10-17T15:56:38;25.40;75.80
1830;DHT22;914;48.118;11.600;2022-10-17T15:59:10;25.20;76.70
1830;DHT22;914;48.118;11.600;2022-10-17T16:01:37;25.10;77.70
1830;DHT22;914;48.118;11.600;2022-10-17T16:04:03;25.10;78.10
1830;DHT22;914;48.118;11.600;2022-10-17T16:06:29;25.10;78.20
1830;DHT22;914;48.118;11.600;2022-10-17T16:08:55;24.90;78.10
1830;DHT22;914;48.118;11.600;2022-10-17T16:11:30;24.90;78.10
1830;DHT22;914;48.118;11.600;2022-10-17T16:14:00;24.60;79.00
1830;DHT22;914;48.118;11.600;2022-10-17T16:16:26;24.70;79.90
1830;DHT22;914;48.118;11.600;2022-10-17T16:18:52;24.60;79.40
1830;DHT22;914;48.118;11.600;2022-10-17T16:21:21;24.60;79.70
1830;DHT22;914;48.118;11.600;2022-10-17T16:23:47;24.60;80.30
1830;DHT22;914;48.118;11.600;2022-10-17T16:26:13;24.40;79.90
1830;DHT22;914;48.118;11.600;2022-10-17T16:28:41;24.30;80.80
1830;DHT22;914;48.118;11.600;2022-10-17T16:33:43;24.10;81.60
1830;DHT22;914;48.118;11.600;2022-10-17T16:36:08;24.00;81.70
1830;DHT22;914;48.118;11.600;2022-10-17T16:38:35;23.90;82.10
1830;DHT22;914;48.118;11.600;2022-10-17T16:41:00;23.80;83.30
1830;DHT22;914;48.118;11.600;2022-10-17T16:43:26;23.70;84.10
1830;DHT22;914;48.118;11.600;2022-10-17T16:45:51;23.60;83.50
1830;DHT22;914;48.118;11.600;2022-10-17T16:48:17;23.50;83.50
1830;DHT22;914;48.118;11.600;2022-10-17T16:50:46;23.40;83.20
1830;DHT22;914;48.118;11.600;2022-10-17T16:53:11;23.40;83.70
1830;DHT22;914;48.118;11.600;2022-10-17T16:55:37;23.30;84.40
1830;DHT22;914;48.118;11.600;2022-10-17T16:58:02;23.30;85.20
1830;DHT22;914;48.118;11.600;2022-10-17T17:00:28;23.20;86.70
1830;DHT22;914;48.118;11.600;2022-10-17T17:02:54;23.10;85.80
1830;DHT22;914;48.118;11.600;2022-10-17T17:05:19;23.00;86.00
1830;DHT22;914;48.118;11.600;2022-10-17T17:07:45;23.00;87.60
1830;DHT22;914;48.118;11.600;2022-10-17T17:10:12;23.00;87.30
1830;DHT22;914;48.118;11.600;2022-10-17T17:12:38;22.90;87.00
1830;DHT22;914;48.118;11.600;2022-10-17T17:15:04;22.80;87.20
1830;DHT22;914;48.118;11.600;2022-10-17T17:17:29;22.70;86.70
1830;DHT22;914;48.118;11.600;2022-10-17T17:19:55;22.50;86.60
1830;DHT22;914;48.118;11.600;2022-10-17T17:22:21;22.30;87.50
1830;DHT22;914;48.118;11.600;2022-10-17T17:24:47;22.30;88.80
1830;DHT22;914;48.118;11.600;2022-10-17T17:27:12;22.30;88.40
1830;DHT22;914;48.118;11.600;2022-10-17T17:29:38;22.30;90.20
1830;DHT22;914;48.118;11.600;2022-10-17T17:32:04;22.30;90.00
1830;DHT22;914;48.118;11.600;2022-10-17T17:34:29;22.20;89.70
1830;DHT22;914;48.118;11.600;2022-10-17T17:36:56;22.00;89.70
1830;DHT22;914;48.118;11.600;2022-10-17T17:39:25;21.80;90.00
1830;DHT22;914;48.118;11.600;2022-10-17T17:41:51;21.60;90.40
1830;DHT22;914;48.118;11.600;2022-10-17T17:44:16;21.40;90.70
1830;DHT22;914;48.118;11.600;2022-10-17T17:46:42;21.40;91.10
1830;DHT22;914;48.118;11.600;2022-10-17T17:49:09;21.40;91.10
1830;DHT22;914;48.118;11.600;2022-10-17T17:51:36;21.30;91.30
1830;DHT22;914;48.118;11.600;2022-10-17T17:54:02;21.20;91.60
1830;DHT22;914;48.118;11.600;2022-10-17T17:56:28;21.20;92.30